Terminal Aerodrome Forecast
Issued by NWS Charleston, WV

Current Version | Previous Version | Graphics & Text | Print | Product List | Glossary On
Versions: 1 2 3 4 5 6 7 8 9 10 11 12 13 14 15 16 17 18 19 20 21 22 23 24 25 26 27
791
FTUS41 KRLX 262348
TAFEKN
TAF
KEKN 262348Z 2700/2724 00000KT 6SM -SHRA BKN090
      TEMPO 2700/2702 5SM SHRA BR BKN025
     FM270500 00000KT P6SM BKN025
     FM270700 00000KT 5SM BR BKN025
     FM270900 00000KT 3SM BR BKN010
     FM271000 00000KT 3SM BR BKN025
     FM271400 00000KT P6SM BKN060=

USA.gov is the U.S. government's official web portal to all federal, state and local government web resources and services.